Time;durP1;ratioP1;P1;durP2;ratioP2;P2;SDS_P1;SDS_P2;PMS_P1;PMS_P2;Temp;Humidity;BMP_temperature;BMP_pressure;BME280_temperature;BME280_humidity;BME280_pressure;Samples;Min_cycle;Max_cycle;Signal;HPM_P1;HPM_P2
2024/04/07 00:01:40;;;;;;;2.58;1.10;;;16.40;99.90;;;;;;4848259;29;20667;-84
2024/04/07 00:04:06;;;;;;;1.10;1.00;;;16.40;99.90;;;;;;4865082;29;20285;-85
2024/04/07 00:06:33;;;;;;;2.38;1.10;;;16.40;99.90;;;;;;4864897;29;20239;-88
2024/04/07 00:09:00;;;;;;;1.70;0.90;;;16.30;99.90;;;;;;4848509;29;20651;-88
2024/04/07 00:11:25;;;;;;;2.38;0.95;;;16.30;99.90;;;;;;4848321;29;20187;-89
2024/04/07 00:13:54;;;;;;;4.03;1.17;;;16.20;99.90;;;;;;4848655;29;20275;-90
2024/04/07 00:16:20;;;;;;;4.15;1.20;;;16.20;99.90;;;;;;4848652;29;20185;-89
2024/04/07 00:18:46;;;;;;;2.67;1.20;;;16.20;99.90;;;;;;4864946;29;20604;-90
2024/04/07 00:21:12;;;;;;;3.03;1.05;;;16.20;99.90;;;;;;4848412;29;20257;-87
2024/04/07 00:23:38;;;;;;;2.80;1.50;;;16.10;99.90;;;;;;4864858;29;20176;-87
2024/04/07 00:26:04;;;;;;;1.98;1.30;;;16.00;99.90;;;;;;4848398;29;20237;-89
2024/04/07 00:28:33;;;;;;;2.75;1.45;;;16.00;99.90;;;;;;4848281;29;20188;-89
2024/04/07 00:31:01;;;;;;;3.95;1.27;;;16.10;99.90;;;;;;4848265;29;20180;-89
2024/04/07 00:33:28;;;;;;;2.78;1.20;;;16.00;99.90;;;;;;4848012;29;20196;-90
2024/04/07 00:35:59;;;;;;;2.25;1.10;;;16.00;99.90;;;;;;4848116;29;20181;-89
2024/04/07 00:38:28;;;;;;;2.75;1.02;;;15.90;99.90;;;;;;4848165;29;20578;-88
2024/04/07 00:40:57;;;;;;;2.55;1.20;;;16.00;99.90;;;;;;4848340;29;20188;-86
2024/04/07 00:43:26;;;;;;;1.67;1.20;;;15.90;99.90;;;;;;4848294;29;20184;-86
2024/04/07 00:45:52;;;;;;;3.35;1.38;;;15.90;99.90;;;;;;4848040;29;20185;-86
2024/04/07 00:48:18;;;;;;;3.70;1.30;;;15.90;99.90;;;;;;4847624;29;20608;-86
2024/04/07 00:50:48;;;;;;;4.75;1.35;;;15.90;99.90;;;;;;4847952;29;20180;-85
2024/04/07 00:53:15;;;;;;;2.38;1.20;;;15.80;99.90;;;;;;4863543;29;20181;-85
2024/04/07 00:55:42;;;;;;;2.20;1.17;;;15.80;99.90;;;;;;4864119;29;20181;-86
2024/04/07 00:58:09;;;;;;;3.30;1.27;;;15.80;99.90;;;;;;4847793;29;20192;-85
2024/04/07 01:00:37;;;;;;;2.00;1.10;;;15.80;99.90;;;;;;4864156;29;20204;-88
2024/04/07 01:03:04;;;;;;;3.92;1.55;;;15.70;99.90;;;;;;4847446;29;20224;-86
2024/04/07 01:05:41;;;;;;;3.53;1.10;;;15.60;99.90;;;;;;4847527;29;20181;-86
2024/04/07 01:08:08;;;;;;;1.95;1.00;;;15.60;99.90;;;;;;4862852;29;20208;-86
2024/04/07 01:10:38;;;;;;;1.80;1.20;;;15.50;99.90;;;;;;4847551;29;20651;-86
2024/04/07 01:13:06;;;;;;;2.20;1.27;;;15.60;99.90;;;;;;4864193;29;20558;-86
2024/04/07 01:15:33;;;;;;;2.15;1.25;;;15.60;99.90;;;;;;4847476;29;20211;-87
2024/04/07 01:17:58;;;;;;;3.55;1.35;;;15.50;99.90;;;;;;4847300;29;20248;-86
2024/04/07 01:20:29;;;;;;;1.63;1.10;;;15.50;99.90;;;;;;4847262;29;20516;-86
2024/04/07 01:22:55;;;;;;;2.47;1.17;;;15.40;99.90;;;;;;4847258;29;20279;-86
2024/04/07 01:25:21;;;;;;;2.35;0.95;;;15.50;99.90;;;;;;4847242;29;20252;-85
2024/04/07 01:27:52;;;;;;;2.58;1.13;;;15.50;99.90;;;;;;4847003;29;20188;-86
2024/04/07 01:30:21;;;;;;;2.65;1.20;;;15.50;99.90;;;;;;4862584;29;20200;-85
2024/04/07 01:32:47;;;;;;;3.00;1.40;;;15.60;99.90;;;;;;4846829;29;20192;-86
2024/04/07 01:35:13;;;;;;;2.58;1.35;;;15.50;99.90;;;;;;4863571;29;20230;-86
2024/04/07 01:37:39;;;;;;;2.13;1.33;;;15.50;99.90;;;;;;4862184;29;20632;-88
2024/04/07 01:40:12;;;;;;;2.47;1.10;;;15.40;99.90;;;;;;4846547;29;20196;-88
2024/04/07 01:42:39;;;;;;;1.67;1.20;;;15.30;99.90;;;;;;4846846;29;20223;-88
2024/04/07 01:45:05;;;;;;;1.90;1.20;;;15.30;99.90;;;;;;4846879;29;20189;-90
2024/04/07 01:47:32;;;;;;;1.85;1.20;;;15.10;99.90;;;;;;4846598;29;20191;-89
2024/04/07 01:50:00;;;;;;;2.42;1.13;;;15.00;99.90;;;;;;4846742;29;20266;-90
2024/04/07 01:52:27;;;;;;;1.45;1.17;;;15.00;99.90;;;;;;4847184;29;20209;-90
2024/04/07 01:54:53;;;;;;;2.30;1.00;;;15.00;99.90;;;;;;4846808;29;20192;-87
2024/04/07 01:57:19;;;;;;;2.95;1.20;;;15.10;99.90;;;;;;4861957;29;20180;-90
2024/04/07 01:59:45;;;;;;;3.92;1.08;;;15.10;99.90;;;;;;4863200;29;20189;-89
2024/04/07 02:02:11;;;;;;;2.08;1.13;;;14.90;99.90;;;;;;4861798;29;20227;-89
2024/04/07 02:04:38;;;;;;;2.17;1.25;;;14.90;99.90;;;;;;4846573;29;20525;-88
2024/04/07 02:07:04;;;;;;;2.80;0.95;;;14.90;99.90;;;;;;4862941;29;20668;-89
2024/04/07 02:09:29;;;;;;;2.50;1.10;;;14.90;99.90;;;;;;4862002;29;20189;-89
2024/04/07 02:11:55;;;;;;;1.60;1.23;;;14.90;99.90;;;;;;4862085;29;20177;-89
2024/04/07 02:14:21;;;;;;;5.15;1.33;;;15.00;99.90;;;;;;4846838;29;20191;-88
2024/04/07 02:16:47;;;;;;;3.00;1.30;;;15.00;99.90;;;;;;4846781;29;20184;-89
2024/04/07 02:19:14;;;;;;;2.45;1.17;;;15.00;99.90;;;;;;4862838;29;20195;-87
2024/04/07 02:21:40;;;;;;;2.78;1.00;;;15.00;99.90;;;;;;4846625;29;20565;-86
2024/04/07 02:24:06;;;;;;;2.30;1.00;;;14.90;99.90;;;;;;4862828;29;20177;-86
2024/04/07 02:26:32;;;;;;;7.85;1.65;;;14.90;99.90;;;;;;4846505;29;20184;-86
2024/04/07 02:28:58;;;;;;;2.42;1.02;;;14.80;99.90;;;;;;4846694;29;20616;-86
2024/04/07 02:31:24;;;;;;;4.13;0.93;;;14.70;99.90;;;;;;4846469;29;20184;-86
2024/04/07 02:33:50;;;;;;;2.33;1.00;;;14.70;99.90;;;;;;4846323;29;20191;-85
2024/04/07 02:36:18;;;;;;;5.05;1.38;;;14.70;99.90;;;;;;4846267;29;20180;-85
2024/04/07 02:38:44;;;;;;;2.28;1.00;;;14.70;99.90;;;;;;4861605;29;20296;-86
2024/04/07 02:41:11;;;;;;;3.83;1.13;;;14.70;99.90;;;;;;4846063;29;20714;-86
2024/04/07 02:43:37;;;;;;;2.30;1.38;;;14.80;99.90;;;;;;4846368;29;20283;-85
2024/04/07 02:48:47;;;;;;;3.55;1.20;;;14.70;99.90;;;;;;4862778;29;20639;-86
2024/04/07 02:51:20;;;;;;;3.55;1.10;;;14.70;99.90;;;;;;4846380;29;20274;-86
2024/04/07 02:53:46;;;;;;;2.85;1.20;;;14.70;99.90;;;;;;4862616;29;20157;-86
2024/04/07 02:56:15;;;;;;;2.38;1.20;;;14.70;99.90;;;;;;4862877;29;20272;-86
2024/04/07 02:58:43;;;;;;;3.63;1.20;;;14.70;99.90;;;;;;4846190;29;20189;-86
2024/04/07 03:01:10;;;;;;;1.42;1.10;;;14.70;99.90;;;;;;4846009;29;20266;-87
2024/04/07 03:03:36;;;;;;;1.73;0.90;;;14.70;99.90;;;;;;4861268;29;20177;-85
2024/04/07 03:06:12;;;;;;;3.03;1.30;;;14.70;99.90;;;;;;4861731;29;20280;-86
2024/04/07 03:08:38;;;;;;;5.88;1.67;;;14.60;99.90;;;;;;4845810;29;20184;-86
2024/04/07 03:11:06;;;;;;;3.13;1.13;;;14.50;99.90;;;;;;4845675;29;20236;-86
2024/04/07 03:13:32;;;;;;;2.58;1.15;;;14.50;99.90;;;;;;4845976;29;20546;-86
2024/04/07 03:15:58;;;;;;;2.17;1.13;;;14.50;99.90;;;;;;4846784;29;20185;-87
2024/04/07 03:18:25;;;;;;;1.73;1.05;;;14.50;99.90;;;;;;4849341;29;20181;-87
2024/04/07 03:20:51;;;;;;;3.50;1.10;;;14.50;99.90;;;;;;4849476;29;20195;-85
2024/04/07 03:23:17;;;;;;;1.50;0.90;;;14.50;99.90;;;;;;4849703;29;20181;-86
2024/04/07 03:25:42;;;;;;;2.70;1.30;;;14.50;99.90;;;;;;4849381;29;20625;-86
2024/04/07 03:28:08;;;;;;;1.35;1.08;;;14.50;99.90;;;;;;4849441;29;20185;-86
2024/04/07 03:30:37;;;;;;;5.15;1.20;;;14.50;99.90;;;;;;4849366;29;20187;-86
2024/04/07 03:33:04;;;;;;;1.60;1.10;;;14.40;99.90;;;;;;4865537;29;20189;-88
2024/04/07 03:35:30;;;;;;;3.17;1.10;;;14.50;99.90;;;;;;4849191;29;20191;-90
2024/04/07 03:37:56;;;;;;;4.68;1.10;;;14.50;99.90;;;;;;4849323;29;20180;-88
2024/04/07 03:40:23;;;;;;;5.15;1.15;;;14.40;99.90;;;;;;4849010;29;20184;-90
2024/04/07 03:42:52;;;;;;;2.75;1.50;;;14.30;99.90;;;;;;4849131;29;20307;-89
2024/04/07 03:45:18;;;;;;;2.70;1.25;;;14.20;99.90;;;;;;4865553;29;20188;-90
2024/04/07 03:47:43;;;;;;;3.92;1.25;;;14.20;99.90;;;;;;4865442;29;20640;-86
2024/04/07 03:50:16;;;;;;;1.20;1.02;;;14.20;99.90;;;;;;4865662;29;20213;-91
2024/04/07 03:52:42;;;;;;;2.28;1.20;;;14.20;99.90;;;;;;4849146;29;20188;-88
2024/04/07 03:55:07;;;;;;;1.70;1.15;;;14.30;99.90;;;;;;4848954;29;20235;-91
2024/04/07 03:57:33;;;;;;;4.13;1.42;;;14.30;99.90;;;;;;4848909;29;20240;-89
2024/04/07 04:00:04;;;;;;;1.90;0.90;;;14.30;99.90;;;;;;4848807;29;20184;-91
2024/04/07 04:02:31;;;;;;;1.67;1.27;;;14.30;99.90;;;;;;4848511;29;20228;-91
2024/04/07 04:05:02;;;;;;;2.80;1.20;;;14.20;99.90;;;;;;4848794;29;20191;-91
2024/04/07 04:07:29;;;;;;;1.73;1.00;;;14.30;99.90;;;;;;4848823;29;20232;-89
2024/04/07 04:09:56;;;;;;;2.30;1.52;;;14.30;99.90;;;;;;4864219;29;20188;-90
2024/04/07 04:12:23;;;;;;;1.92;1.30;;;14.20;99.90;;;;;;4865328;29;20198;-90
2024/04/07 04:14:50;;;;;;;2.92;1.30;;;14.20;99.90;;;;;;4848818;29;20188;-86
2024/04/07 04:17:16;;;;;;;6.22;1.17;;;14.20;99.90;;;;;;4848400;29;20191;-88
2024/04/07 04:19:42;;;;;;;1.92;1.20;;;14.10;99.90;;;;;;4848795;29;20191;-87
2024/04/07 04:22:08;;;;;;;6.13;1.60;;;14.10;99.90;;;;;;4848484;29;20216;-87
2024/04/07 04:24:35;;;;;;;3.22;0.90;;;14.10;99.90;;;;;;4848034;29;20187;-86
2024/04/07 04:27:04;;;;;;;3.25;0.98;;;14.00;99.90;;;;;;4847580;29;20240;-87
2024/04/07 04:29:37;;;;;;;2.15;1.42;;;14.00;99.90;;;;;;4848011;29;20628;-87
2024/04/07 04:32:06;;;;;;;2.25;1.10;;;14.00;99.90;;;;;;4863551;29;20180;-88
2024/04/07 04:34:32;;;;;;;3.53;1.20;;;14.00;99.90;;;;;;4848240;29;20189;-86
2024/04/07 04:36:58;;;;;;;2.15;1.20;;;14.00;99.90;;;;;;4847317;29;20208;-84
2024/04/07 04:39:24;;;;;;;3.28;1.20;;;14.10;99.90;;;;;;4847661;29;20192;-85
2024/04/07 04:41:52;;;;;;;1.80;1.20;;;14.20;99.90;;;;;;4847749;29;20220;-88
2024/04/07 04:44:18;;;;;;;3.63;1.20;;;14.40;99.90;;;;;;4847898;29;20180;-90
2024/04/07 04:46:45;;;;;;;4.78;1.10;;;14.80;99.90;;;;;;4847603;29;20539;-86
2024/04/07 04:49:15;;;;;;;4.43;1.55;;;15.10;99.90;;;;;;4864427;29;20185;-86
2024/04/07 04:51:48;;;;;;;3.80;1.00;;;15.40;99.90;;;;;;4847900;29;20177;-87
2024/04/07 04:54:14;;;;;;;2.88;1.30;;;15.50;99.90;;;;;;4863130;29;20704;-85
2024/04/07 04:56:40;;;;;;;4.18;1.20;;;15.70;99.90;;;;;;4847655;29;20275;-89
2024/04/07 04:59:05;;;;;;;3.75;1.17;;;16.00;99.90;;;;;;4847472;29;20192;-84
2024/04/07 05:01:32;;;;;;;9.60;1.45;;;16.20;99.90;;;;;;4862851;29;20679;-85
2024/04/07 05:03:59;;;;;;;4.72;1.20;;;16.50;99.90;;;;;;4862817;29;20193;-87
2024/04/07 05:06:25;;;;;;;3.10;1.50;;;16.60;99.90;;;;;;4863748;29;20672;-85
2024/04/07 05:08:51;;;;;;;1.83;1.00;;;16.80;99.90;;;;;;4846473;29;20236;-83
2024/04/07 05:11:18;;;;;;;3.30;1.10;;;16.90;99.90;;;;;;4847277;29;20589;-85
2024/04/07 05:13:44;;;;;;;2.03;1.02;;;17.00;99.90;;;;;;4847269;29;20185;-85
2024/04/07 05:16:10;;;;;;;4.32;1.20;;;17.00;99.90;;;;;;4847425;29;20508;-87
2024/04/07 05:18:36;;;;;;;4.88;1.20;;;17.00;99.90;;;;;;4847118;29;20234;-84
2024/04/07 05:21:04;;;;;;;3.42;1.20;;;17.00;99.90;;;;;;4863696;29;20613;-85
2024/04/07 05:23:31;;;;;;;1.42;0.90;;;17.00;99.90;;;;;;4847217;29;20263;-85
2024/04/07 05:26:08;;;;;;;4.60;1.10;;;17.20;99.90;;;;;;4846994;29;20504;-88
2024/04/07 05:28:34;;;;;;;3.03;1.00;;;17.30;99.90;;;;;;4847041;29;20184;-85
2024/04/07 05:31:04;;;;;;;2.50;1.20;;;17.20;99.90;;;;;;4863703;29;20177;-84
2024/04/07 05:33:33;;;;;;;4.20;1.02;;;17.20;99.90;;;;;;4846038;29;20189;-85
2024/04/07 05:35:58;;;;;;;6.72;1.02;;;17.30;99.90;;;;;;4847168;29;20270;-83
2024/04/07 05:38:24;;;;;;;4.60;1.30;;;17.20;99.90;;;;;;4846326;29;20621;-86
2024/04/07 05:40:57;;;;;;;4.03;1.05;;;17.20;99.90;;;;;;4845932;29;20181;-85
2024/04/07 05:43:23;;;;;;;3.05;1.10;;;17.20;99.90;;;;;;4846675;29;20226;-88
2024/04/07 05:45:50;;;;;;;4.40;1.35;;;17.20;99.90;;;;;;4862982;29;20609;-84
2024/04/07 05:48:16;;;;;;;1.80;1.10;;;17.20;99.90;;;;;;4846102;29;20196;-83
2024/04/07 05:50:41;;;;;;;1.65;0.93;;;17.20;99.90;;;;;;4845613;29;20180;-83
2024/04/07 05:53:08;;;;;;;3.33;1.00;;;17.20;99.90;;;;;;4846498;29;20184;-84
2024/04/07 05:55:35;;;;;;;2.78;1.10;;;17.20;99.90;;;;;;4846135;29;20498;-84
2024/04/07 05:58:01;;;;;;;3.72;1.10;;;17.20;99.90;;;;;;4862509;29;20490;-84
2024/04/07 06:00:29;;;;;;;5.57;0.98;;;17.20;99.90;;;;;;4846307;29;20195;-91
2024/04/07 06:02:56;;;;;;;6.22;1.67;;;17.30;99.90;;;;;;4846010;29;20315;-83
2024/04/07 06:05:21;;;;;;;4.25;1.20;;;17.30;99.90;;;;;;4862699;29;20169;-81
2024/04/07 06:07:50;;;;;;;3.30;1.17;;;17.30;99.90;;;;;;4846144;29;20698;-82
2024/04/07 06:10:15;;;;;;;7.57;1.20;;;17.40;99.90;;;;;;4861476;29;20183;-89
2024/04/07 06:12:41;;;;;;;2.72;0.95;;;17.40;99.90;;;;;;4862236;29;20267;-89
2024/04/07 06:15:07;;;;;;;6.07;1.55;;;17.40;99.90;;;;;;4862844;29;20569;-89
2024/04/07 06:17:32;;;;;;;1.75;1.00;;;17.40;99.90;;;;;;4862882;29;20268;-89
2024/04/07 06:19:58;;;;;;;3.75;1.17;;;17.50;99.90;;;;;;4862613;29;20192;-92
2024/04/07 06:22:26;;;;;;;4.38;1.35;;;17.50;99.90;;;;;;4862611;29;20652;-90
2024/04/07 06:24:52;;;;;;;5.68;1.30;;;17.60;99.90;;;;;;4846221;29;20184;-91
2024/04/07 06:27:19;;;;;;;3.08;1.00;;;17.60;99.90;;;;;;4846114;29;20196;-90
2024/04/07 06:29:45;;;;;;;5.28;1.40;;;17.80;99.90;;;;;;4846344;29;20189;-92
2024/04/07 06:32:14;;;;;;;3.40;1.33;;;17.90;99.90;;;;;;4846305;29;20180;-91
2024/04/07 06:34:39;;;;;;;4.75;1.30;;;17.90;99.90;;;;;;4860497;29;20188;-86
2024/04/07 06:37:05;;;;;;;4.53;1.50;;;17.90;99.90;;;;;;4841194;29;20252;-86
2024/04/07 06:39:30;;;;;;;4.20;1.50;;;17.90;99.90;;;;;;4845445;29;20636;-86
2024/04/07 06:41:57;;;;;;;7.07;1.63;;;17.90;99.90;;;;;;4845358;29;20477;-84
2024/04/07 06:44:23;;;;;;;10.68;2.13;;;17.80;99.90;;;;;;4836808;29;20193;-92
2024/04/07 06:46:48;;;;;;;6.53;1.50;;;17.90;99.90;;;;;;4843048;29;20620;-86
2024/04/07 06:49:14;;;;;;;12.43;1.70;;;18.00;99.90;;;;;;4836378;29;20191;-84
2024/04/07 06:51:40;;;;;;;7.53;1.80;;;18.10;99.90;;;;;;4844105;29;20199;-85
2024/04/07 06:54:05;;;;;;;5.03;1.60;;;18.30;99.90;;;;;;4855903;29;20647;-85
2024/04/07 06:56:31;;;;;;;6.93;1.40;;;18.40;99.90;;;;;;4853136;29;20248;-86
2024/04/07 06:58:56;;;;;;;3.92;1.42;;;18.50;99.90;;;;;;4874102;29;20192;-85
2024/04/07 07:01:22;;;;;;;9.25;1.95;;;18.50;99.90;;;;;;4849326;29;20231;-86
2024/04/07 07:03:48;;;;;;;8.27;1.50;;;18.50;99.90;;;;;;4839341;29;20201;-89
2024/04/07 07:06:15;;;;;;;5.78;1.52;;;18.50;99.90;;;;;;4866934;29;20238;-87
2024/04/07 07:08:42;;;;;;;7.50;1.67;;;18.50;99.90;;;;;;4849268;29;20609;-88
2024/04/07 07:11:09;;;;;;;5.70;1.50;;;18.60;99.90;;;;;;4864488;29;20199;-88
2024/04/07 07:13:44;;;;;;;4.32;1.75;;;18.60;99.90;;;;;;4872578;29;20176;-85
2024/04/07 07:16:10;;;;;;;5.40;1.48;;;18.60;99.90;;;;;;4849130;29;20176;-91
2024/04/07 07:18:36;;;;;;;4.53;1.55;;;18.50;99.90;;;;;;4865804;29;20191;-94
2024/04/07 07:21:03;;;;;;;4.50;1.50;;;18.50;99.90;;;;;;4849276;29;20801;-88
2024/04/07 07:23:33;;;;;;;4.22;1.50;;;18.40;99.90;;;;;;4849334;29;20192;-88
2024/04/07 07:26:02;;;;;;;4.80;1.40;;;18.40;99.90;;;;;;4848856;29;20176;-92
2024/04/07 07:28:28;;;;;;;5.30;1.38;;;18.30;99.90;;;;;;4864406;29;20387;-91
2024/04/07 07:30:54;;;;;;;5.00;1.45;;;18.20;99.90;;;;;;4849213;29;20177;-90
2024/04/07 07:33:20;;;;;;;4.45;1.50;;;18.30;99.90;;;;;;4865653;29;20628;-93
2024/04/07 07:35:46;;;;;;;10.25;1.63;;;18.20;99.90;;;;;;4848671;29;20237;-88
2024/04/07 07:38:12;;;;;;;3.33;1.30;;;18.30;99.90;;;;;;4849199;29;20189;-91
2024/04/07 07:40:38;;;;;;;4.30;1.30;;;18.30;99.90;;;;;;4874206;29;20194;-90
2024/04/07 07:43:04;;;;;;;6.78;1.67;;;18.30;99.90;;;;;;4882765;29;20647;-92
2024/04/07 07:45:30;;;;;;;9.82;1.60;;;18.40;99.90;;;;;;4883890;29;20175;-91
2024/04/07 07:47:55;;;;;;;5.93;1.63;;;18.40;99.90;;;;;;4867522;29;20192;-94
2024/04/07 07:50:21;;;;;;;4.07;1.23;;;18.40;99.90;;;;;;4884200;29;20176;-93
2024/04/07 07:52:47;;;;;;;4.97;1.55;;;18.30;99.90;;;;;;4884083;29;20279;-93
2024/04/07 07:55:13;;;;;;;4.85;1.35;;;18.30;99.90;;;;;;4884144;29;20235;-93
2024/04/07 07:57:39;;;;;;;4.47;1.08;;;18.20;99.90;;;;;;4852209;29;20196;-91
2024/04/07 08:00:05;;;;;;;4.43;1.20;;;18.20;99.90;;;;;;4848935;29;20240;-95
2024/04/07 08:02:31;;;;;;;5.28;1.25;;;18.30;99.90;;;;;;4869501;29;20212;-92
2024/04/07 08:04:57;;;;;;;2.25;1.10;;;18.20;99.90;;;;;;4848637;29;20714;-94
2024/04/07 08:07:23;;;;;;;4.65;1.35;;;18.30;99.90;;;;;;4848298;29;20240;-88
2024/04/07 08:09:49;;;;;;;5.90;1.60;;;18.50;99.90;;;;;;4848531;29;20180;-92
2024/04/07 08:12:14;;;;;;;3.08;1.17;;;18.50;99.90;;;;;;4847427;29;20249;-88
2024/04/07 08:14:42;;;;;;;2.83;1.08;;;18.60;99.90;;;;;;4848412;29;20241;-91
2024/04/07 08:17:08;;;;;;;3.05;1.42;;;18.70;99.90;;;;;;4848000;29;20177;-91
2024/04/07 08:19:34;;;;;;;2.10;1.00;;;18.80;99.90;;;;;;4860161;29;20211;-92
2024/04/07 08:22:00;;;;;;;4.85;1.02;;;18.90;99.90;;;;;;4852712;29;20259;-91
2024/04/07 08:24:26;;;;;;;2.08;1.00;;;19.00;99.90;;;;;;4847964;29;20180;-91
2024/04/07 08:26:52;;;;;;;3.42;1.20;;;18.90;99.90;;;;;;4848573;29;20276;-88
2024/04/07 08:29:19;;;;;;;3.50;1.10;;;18.90;99.90;;;;;;4863453;29;20267;-93
2024/04/07 08:31:45;;;;;;;3.72;1.15;;;18.80;99.90;;;;;;4854755;29;20179;-88
2024/04/07 08:34:11;;;;;;;3.72;1.45;;;18.70;99.90;;;;;;4850820;29;20531;-91
2024/04/07 08:36:36;;;;;;;3.35;0.82;;;18.70;99.90;;;;;;4847687;29;20185;-90
2024/04/07 08:39:02;;;;;;;5.95;1.15;;;18.70;99.90;;;;;;4863644;29;20644;-89
2024/04/07 08:41:28;;;;;;;2.08;0.93;;;18.70;99.90;;;;;;4847914;29;20220;-88
2024/04/07 08:44:00;;;;;;;4.47;1.17;;;18.80;99.90;;;;;;4846794;29;20185;-89
2024/04/07 08:46:26;;;;;;;3.38;1.10;;;18.90;99.90;;;;;;4847414;29;20176;-89
2024/04/07 08:48:54;;;;;;;1.50;0.77;;;18.90;99.90;;;;;;4846870;29;20181;-91
2024/04/07 08:51:19;;;;;;;4.57;1.35;;;19.00;99.90;;;;;;4847632;29;20329;-90
2024/04/07 08:53:47;;;;;;;5.82;1.40;;;19.00;99.90;;;;;;4846917;29;20248;-92
2024/04/07 08:56:13;;;;;;;1.70;0.80;;;19.00;99.90;;;;;;4847555;29;20187;-92
2024/04/07 08:58:40;;;;;;;2.85;1.15;;;19.00;99.90;;;;;;4863624;29;20185;-88
2024/04/07 09:01:14;;;;;;;4.25;1.40;;;19.00;99.90;;;;;;4847373;29;20189;-91
2024/04/07 09:03:42;;;;;;;4.85;1.15;;;19.00;99.90;;;;;;4847659;29;20189;-92
2024/04/07 09:06:08;;;;;;;3.58;1.15;;;19.00;99.90;;;;;;4846983;29;20228;-84
2024/04/07 09:08:34;;;;;;;2.30;0.93;;;19.00;99.90;;;;;;4846292;29;20208;-86
2024/04/07 09:10:59;;;;;;;2.60;1.00;;;18.90;99.90;;;;;;4847147;29;20185;-89
2024/04/07 09:13:25;;;;;;;4.75;1.58;;;18.90;99.90;;;;;;4862206;29;20317;-90
2024/04/07 09:15:51;;;;;;;4.28;1.30;;;18.80;99.90;;;;;;4861532;29;20189;-90
2024/04/07 09:18:21;;;;;;;4.68;1.20;;;19.00;99.90;;;;;;4846814;29;20183;-91
2024/04/07 09:20:47;;;;;;;5.28;1.58;;;19.10;99.90;;;;;;4846516;29;20181;-91
2024/04/07 09:23:13;;;;;;;1.70;1.00;;;19.20;99.90;;;;;;4862055;29;20226;-91
2024/04/07 09:25:39;;;;;;;3.13;1.02;;;19.20;99.90;;;;;;4862628;29;20293;-89
2024/04/07 09:28:05;;;;;;;2.38;0.80;;;19.40;99.90;;;;;;4863174;29;20181;-86
2024/04/07 09:30:31;;;;;;;3.70;1.25;;;19.50;99.90;;;;;;4846908;29;20246;-88
2024/04/07 09:32:57;;;;;;;3.22;0.82;;;19.50;99.90;;;;;;4846307;29;20184;-88
2024/04/07 09:35:24;;;;;;;2.00;1.05;;;19.40;99.90;;;;;;4846407;29;20235;-83
2024/04/07 09:37:50;;;;;;;5.03;1.10;;;19.20;99.90;;;;;;4846101;29;20192;-85
2024/04/07 09:40:16;;;;;;;6.78;1.30;;;19.00;99.90;;;;;;4846715;29;20180;-88
2024/04/07 09:42:43;;;;;;;2.88;0.73;;;19.00;99.90;;;;;;4846900;29;20247;-88
2024/04/07 09:45:10;;;;;;;5.75;1.40;;;18.90;99.90;;;;;;4846551;29;20180;-90
2024/04/07 09:47:38;;;;;;;6.05;1.05;;;18.90;99.90;;;;;;4856659;29;20180;-90
2024/04/07 09:50:26;;;;;;;3.22;1.38;;;18.90;99.90;;;;;;4859145;29;20187;-90
2024/04/07 09:52:55;;;;;;;2.33;0.88;;;19.00;99.90;;;;;;4877493;29;20181;-88
2024/04/07 09:55:24;;;;;;;2.70;1.08;;;19.00;99.90;;;;;;4861853;29;20219;-91
2024/04/07 09:57:49;;;;;;;3.20;0.88;;;19.00;99.90;;;;;;4861753;29;20248;-89
2024/04/07 10:00:15;;;;;;;2.75;1.25;;;19.10;99.90;;;;;;4862223;29;20617;-90
2024/04/07 10:02:42;;;;;;;2.53;1.25;;;19.30;99.90;;;;;;4856349;29;20580;-89
2024/04/07 10:05:09;;;;;;;2.53;1.02;;;19.40;99.90;;;;;;4861877;29;20263;-85
2024/04/07 10:07:36;;;;;;;8.45;1.30;;;19.70;99.90;;;;;;4855357;29;20805;-92
2024/04/07 10:10:11;;;;;;;7.95;1.20;;;19.90;99.90;;;;;;4861443;29;20612;-90
2024/04/07 10:12:40;;;;;;;4.53;1.23;;;20.10;99.90;;;;;;4858582;29;20195;-89
2024/04/07 10:15:18;;;;;;;3.50;1.00;;;20.10;99.90;;;;;;4846547;29;20200;-90
2024/04/07 10:17:44;;;;;;;2.53;0.85;;;20.30;99.90;;;;;;4846696;29;20238;-90
2024/04/07 10:20:10;;;;;;;5.30;1.60;;;20.60;99.90;;;;;;4846226;29;20651;-93
2024/04/07 10:22:37;;;;;;;2.65;1.23;;;20.70;99.90;;;;;;4846071;29;20678;-93
2024/04/07 10:25:05;;;;;;;5.38;1.33;;;20.70;99.90;;;;;;4846127;29;20184;-92
2024/04/07 10:27:31;;;;;;;5.10;1.30;;;20.90;99.90;;;;;;4846570;29;20520;-93
2024/04/07 10:29:59;;;;;;;4.68;1.10;;;20.90;99.90;;;;;;4846319;29;20188;-91
2024/04/07 10:32:27;;;;;;;2.00;0.90;;;20.70;99.90;;;;;;4862467;29;20177;-88
2024/04/07 10:35:07;;;;;;;2.70;0.90;;;20.40;99.90;;;;;;4862892;29;20206;-91
2024/04/07 10:37:34;;;;;;;3.38;0.90;;;20.20;99.90;;;;;;4846080;29;20621;-87
2024/04/07 10:40:08;;;;;;;4.20;1.23;;;20.10;99.90;;;;;;4845404;29;20192;-92
2024/04/07 10:42:35;;;;;;;6.78;1.20;;;20.10;99.90;;;;;;4845614;29;20216;-91
2024/04/07 10:45:04;;;;;;;2.72;0.93;;;20.00;99.90;;;;;;4846001;29;20181;-90
2024/04/07 10:47:30;;;;;;;3.13;1.20;;;19.90;99.90;;;;;;4845408;29;20180;-93
2024/04/07 10:49:56;;;;;;;4.93;1.48;;;19.90;99.90;;;;;;4859648;29;20184;-92
2024/04/07 10:52:26;;;;;;;4.65;1.00;;;19.80;99.90;;;;;;4845436;29;20708;-88
2024/04/07 10:54:54;;;;;;;4.70;1.30;;;19.90;99.90;;;;;;4860981;29;20185;-91
2024/04/07 10:57:19;;;;;;;4.53;1.10;;;19.90;99.90;;;;;;4862324;29;20271;-86
2024/04/07 10:59:45;;;;;;;6.55;1.33;;;19.90;99.90;;;;;;4845945;29;20636;-88
2024/04/07 11:02:11;;;;;;;2.33;1.00;;;19.90;99.90;;;;;;4861519;29;20529;-87
2024/04/07 11:04:41;;;;;;;3.03;1.40;;;19.90;99.90;;;;;;4846014;29;20257;-88
2024/04/07 11:07:06;;;;;;;2.10;1.10;;;20.00;99.90;;;;;;4845606;29;20288;-86
2024/04/07 11:09:32;;;;;;;3.85;1.00;;;20.00;99.90;;;;;;4845587;29;20620;-88
2024/04/07 11:12:00;;;;;;;1.80;1.00;;;19.90;99.90;;;;;;4845824;29;20642;-87
2024/04/07 11:14:30;;;;;;;5.38;1.17;;;19.90;99.90;;;;;;4862230;29;20180;-89
2024/04/07 11:17:01;;;;;;;3.15;1.35;;;19.90;99.90;;;;;;4845897;29;20196;-88
2024/04/07 11:19:27;;;;;;;3.20;1.05;;;20.20;99.90;;;;;;4845992;29;20248;-93
2024/04/07 11:21:54;;;;;;;4.68;1.30;;;20.60;99.90;;;;;;4845818;29;20303;-91
2024/04/07 11:24:20;;;;;;;4.03;1.13;;;20.90;99.90;;;;;;4862116;29;20233;-92
2024/04/07 11:26:53;;;;;;;4.50;1.05;;;21.10;99.90;;;;;;4862541;29;20235;-88
2024/04/07 11:29:19;;;;;;;4.03;1.42;;;21.40;99.90;;;;;;4845879;29;20231;-92
2024/04/07 11:31:57;;;;;;;1.90;0.90;;;21.50;99.90;;;;;;4846039;29;20634;-89
2024/04/07 11:34:30;;;;;;;5.90;1.40;;;21.90;99.90;;;;;;4862289;29;20251;-89
2024/04/07 11:37:01;;;;;;;3.50;1.00;;;21.90;99.90;;;;;;4862819;29;20185;-92
2024/04/07 11:39:27;;;;;;;4.03;1.08;;;22.10;99.90;;;;;;4848851;29;20216;-94
2024/04/07 11:41:52;;;;;;;3.70;1.20;;;22.20;99.90;;;;;;4849042;29;20247;-90
2024/04/07 11:44:18;;;;;;;5.45;1.15;;;22.40;99.90;;;;;;4848936;29;20185;-92
2024/04/07 11:46:52;;;;;;;4.30;1.20;;;22.60;99.90;;;;;;4849073;29;20188;-90
2024/04/07 11:49:17;;;;;;;5.07;1.15;;;22.80;99.90;;;;;;4848940;29;20291;-89
2024/04/07 11:51:43;;;;;;;5.03;1.23;;;22.80;99.90;;;;;;4848731;29;20244;-84
2024/04/07 11:54:09;;;;;;;4.40;1.13;;;22.60;99.90;;;;;;4848374;29;20237;-84
2024/04/07 11:56:41;;;;;;;6.15;1.40;;;22.50;99.90;;;;;;4863809;29;20185;-90
2024/04/07 11:59:06;;;;;;;2.60;1.05;;;22.40;99.90;;;;;;4848700;29;20180;-86
2024/04/07 12:01:32;;;;;;;2.92;0.95;;;22.40;99.90;;;;;;4848613;29;20208;-86
2024/04/07 12:03:59;;;;;;;5.65;1.25;;;22.60;99.90;;;;;;4848407;29;20539;-85
2024/04/07 12:06:25;;;;;;;4.35;1.10;;;22.70;99.90;;;;;;4848118;29;20228;-84
2024/04/07 12:08:51;;;;;;;3.45;1.00;;;22.50;99.90;;;;;;4847747;29;20207;-84
2024/04/07 12:11:16;;;;;;;4.93;1.13;;;22.40;99.90;;;;;;4864897;29;20692;-86
2024/04/07 12:13:43;;;;;;;2.45;0.98;;;22.60;99.90;;;;;;4848112;29;20185;-83
2024/04/07 12:16:10;;;;;;;4.07;0.90;;;22.90;99.90;;;;;;4847616;29;20183;-85
2024/04/07 12:18:36;;;;;;;3.10;1.10;;;22.90;99.90;;;;;;4848253;29;20629;-86
2024/04/07 12:21:02;;;;;;;4.97;1.35;;;22.80;99.70;;;;;;4846917;29;20260;-86
2024/04/07 12:23:40;;;;;;;2.90;0.98;;;22.70;99.50;;;;;;4864464;29;20208;-83
2024/04/07 12:26:08;;;;;;;4.40;0.88;;;22.70;99.90;;;;;;4847978;29;20179;-86
2024/04/07 12:28:34;;;;;;;3.00;1.00;;;22.70;99.40;;;;;;4848429;29;20272;-88
2024/04/07 12:31:00;;;;;;;5.05;1.10;;;22.70;99.90;;;;;;4864599;29;20261;-85
2024/04/07 12:33:25;;;;;;;4.43;1.50;;;22.90;99.70;;;;;;4847921;29;20181;-86
2024/04/07 12:35:53;;;;;;;4.13;1.17;;;22.90;99.90;;;;;;4863131;29;20227;-83
2024/04/07 12:38:19;;;;;;;6.60;1.02;;;22.90;98.80;;;;;;4863632;29;20241;-85
2024/04/07 12:40:45;;;;;;;1.98;0.73;;;22.80;99.50;;;;;;4847213;29;20188;-84
2024/04/07 12:43:11;;;;;;;2.33;0.68;;;22.70;99.50;;;;;;4847190;29;20264;-83
2024/04/07 12:45:37;;;;;;;2.60;1.10;;;22.70;99.70;;;;;;4847258;29;20181;-85
2024/04/07 12:48:14;;;;;;;3.75;1.10;;;22.60;99.90;;;;;;4863595;29;20231;-87